sensor_id;sensor_type;location;lat;lon;timestamp;P1;durP1;ratioP1;P2;durP2;ratioP2
19149;SDS011;9707;49.158;8.632;2023-05-10T00:01:50;0.63;;;0.63;;
19149;SDS011;9707;49.158;8.632;2023-05-10T00:04:15;1.05;;;0.80;;
19149;SDS011;9707;49.158;8.632;2023-05-10T00:06:40;1.20;;;0.60;;
19149;SDS011;9707;49.158;8.632;2023-05-10T00:09:06;1.95;;;0.95;;
19149;SDS011;9707;49.158;8.632;2023-05-10T00:11:31;1.77;;;1.05;;
19149;SDS011;9707;49.158;8.632;2023-05-10T00:13:56;0.95;;;0.63;;
19149;SDS011;9707;49.158;8.632;2023-05-10T00:16:22;0.47;;;0.47;;
19149;SDS011;9707;49.158;8.632;2023-05-10T00:18:47;1.10;;;0.60;;
19149;SDS011;9707;49.158;8.632;2023-05-10T00:21:12;3.30;;;0.63;;
19149;SDS011;9707;49.158;8.632;2023-05-10T00:23:37;1.77;;;0.63;;
19149;SDS011;9707;49.158;8.632;2023-05-10T00:26:03;1.33;;;0.50;;
19149;SDS011;9707;49.158;8.632;2023-05-10T00:28:28;1.63;;;0.52;;
19149;SDS011;9707;49.158;8.632;2023-05-10T00:30:54;1.83;;;0.57;;
19149;SDS011;9707;49.158;8.632;2023-05-10T00:33:19;2.15;;;0.63;;
19149;SDS011;9707;49.158;8.632;2023-05-10T00:35:44;1.73;;;0.50;;
19149;SDS011;9707;49.158;8.632;2023-05-10T00:38:10;2.25;;;0.52;;
19149;SDS011;9707;49.158;8.632;2023-05-10T00:40:35;3.92;;;0.60;;
19149;SDS011;9707;49.158;8.632;2023-05-10T00:43:02;0.63;;;0.50;;
19149;SDS011;9707;49.158;8.632;2023-05-10T00:45:27;1.63;;;0.50;;
19149;SDS011;9707;49.158;8.632;2023-05-10T00:47:54;1.48;;;0.40;;
19149;SDS011;9707;49.158;8.632;2023-05-10T00:50:21;2.28;;;0.93;;
19149;SDS011;9707;49.158;8.632;2023-05-10T00:52:47;0.75;;;0.52;;
19149;SDS011;9707;49.158;8.632;2023-05-10T00:55:12;0.50;;;0.50;;
19149;SDS011;9707;49.158;8.632;2023-05-10T00:57:38;2.22;;;0.40;;
19149;SDS011;9707;49.158;8.632;2023-05-10T01:00:04;1.80;;;0.80;;
19149;SDS011;9707;49.158;8.632;2023-05-10T01:02:29;1.83;;;0.57;;
19149;SDS011;9707;49.158;8.632;2023-05-10T01:04:55;2.33;;;0.38;;
19149;SDS011;9707;49.158;8.632;2023-05-10T01:07:20;0.50;;;0.40;;
19149;SDS011;9707;49.158;8.632;2023-05-10T01:09:45;1.98;;;0.50;;
19149;SDS011;9707;49.158;8.632;2023-05-10T01:12:11;0.60;;;0.40;;
19149;SDS011;9707;49.158;8.632;2023-05-10T01:14:36;1.35;;;0.38;;
19149;SDS011;9707;49.158;8.632;2023-05-10T01:17:02;1.20;;;0.45;;
19149;SDS011;9707;49.158;8.632;2023-05-10T01:19:29;0.47;;;0.28;;
19149;SDS011;9707;49.158;8.632;2023-05-10T01:36:19;1.30;;;0.40;;
19149;SDS011;9707;49.158;8.632;2023-05-10T01:38:59;1.08;;;0.50;;
19149;SDS011;9707;49.158;8.632;2023-05-10T01:44:31;1.80;;;0.60;;
19149;SDS011;9707;49.158;8.632;2023-05-10T01:47:20;0.57;;;0.40;;
19149;SDS011;9707;49.158;8.632;2023-05-10T01:49:55;1.17;;;0.50;;
19149;SDS011;9707;49.158;8.632;2023-05-10T01:52:26;2.28;;;0.47;;
19149;SDS011;9707;49.158;8.632;2023-05-10T01:55:01;0.52;;;0.32;;
19149;SDS011;9707;49.158;8.632;2023-05-10T01:57:31;1.30;;;0.20;;
19149;SDS011;9707;49.158;8.632;2023-05-10T01:59:59;2.17;;;0.50;;
19149;SDS011;9707;49.158;8.632;2023-05-10T02:02:25;1.20;;;0.30;;
19149;SDS011;9707;49.158;8.632;2023-05-10T02:04:53;1.55;;;0.40;;
19149;SDS011;9707;49.158;8.632;2023-05-10T02:07:20;0.57;;;0.40;;
19149;SDS011;9707;49.158;8.632;2023-05-10T02:09:47;2.08;;;0.47;;
19149;SDS011;9707;49.158;8.632;2023-05-10T02:12:13;1.42;;;0.30;;
19149;SDS011;9707;49.158;8.632;2023-05-10T02:14:40;0.52;;;0.43;;
19149;SDS011;9707;49.158;8.632;2023-05-10T02:17:07;1.17;;;0.35;;
19149;SDS011;9707;49.158;8.632;2023-05-10T02:19:34;0.98;;;0.40;;
19149;SDS011;9707;49.158;8.632;2023-05-10T02:22:03;0.50;;;0.40;;
19149;SDS011;9707;49.158;8.632;2023-05-10T02:24:30;0.68;;;0.60;;
19149;SDS011;9707;49.158;8.632;2023-05-10T02:26:58;0.95;;;0.52;;
19149;SDS011;9707;49.158;8.632;2023-05-10T02:29:25;1.60;;;0.45;;
19149;SDS011;9707;49.158;8.632;2023-05-10T02:31:52;0.70;;;0.40;;
19149;SDS011;9707;49.158;8.632;2023-05-10T02:34:20;1.25;;;0.32;;
19149;SDS011;9707;49.158;8.632;2023-05-10T02:36:46;0.30;;;0.30;;
19149;SDS011;9707;49.158;8.632;2023-05-10T02:39:12;1.58;;;0.47;;
19149;SDS011;9707;49.158;8.632;2023-05-10T02:41:40;1.30;;;0.50;;
19149;SDS011;9707;49.158;8.632;2023-05-10T02:44:07;0.70;;;0.52;;
19149;SDS011;9707;49.158;8.632;2023-05-10T02:46:34;1.40;;;0.50;;
19149;SDS011;9707;49.158;8.632;2023-05-10T02:49:01;0.57;;;0.57;;
19149;SDS011;9707;49.158;8.632;2023-05-10T02:51:28;1.42;;;0.50;;
19149;SDS011;9707;49.158;8.632;2023-05-10T02:53:57;0.98;;;0.68;;
19149;SDS011;9707;49.158;8.632;2023-05-10T02:56:47;1.77;;;0.73;;
19149;SDS011;9707;49.158;8.632;2023-05-10T02:59:16;3.38;;;0.70;;
19149;SDS011;9707;49.158;8.632;2023-05-10T03:01:41;0.70;;;0.70;;
19149;SDS011;9707;49.158;8.632;2023-05-10T03:04:07;1.00;;;0.80;;
19149;SDS011;9707;49.158;8.632;2023-05-10T03:06:32;2.15;;;0.75;;
19149;SDS011;9707;49.158;8.632;2023-05-10T03:08:57;4.47;;;1.00;;
19149;SDS011;9707;49.158;8.632;2023-05-10T03:16:36;1.58;;;0.80;;
19149;SDS011;9707;49.158;8.632;2023-05-10T03:19:24;1.55;;;0.88;;
19149;SDS011;9707;49.158;8.632;2023-05-10T03:21:55;2.65;;;1.55;;
19149;SDS011;9707;49.158;8.632;2023-05-10T03:24:24;1.73;;;0.90;;
19149;SDS011;9707;49.158;8.632;2023-05-10T03:26:54;2.45;;;1.38;;
19149;SDS011;9707;49.158;8.632;2023-05-10T03:29:21;2.55;;;1.90;;
19149;SDS011;9707;49.158;8.632;2023-05-10T03:31:47;1.52;;;1.27;;
19149;SDS011;9707;49.158;8.632;2023-05-10T03:34:13;2.78;;;1.60;;
19149;SDS011;9707;49.158;8.632;2023-05-10T03:36:38;2.38;;;2.00;;
19149;SDS011;9707;49.158;8.632;2023-05-10T03:39:03;2.85;;;1.80;;
19149;SDS011;9707;49.158;8.632;2023-05-10T03:41:28;1.98;;;1.08;;
19149;SDS011;9707;49.158;8.632;2023-05-10T03:43:54;2.53;;;1.13;;
19149;SDS011;9707;49.158;8.632;2023-05-10T03:46:19;1.73;;;1.30;;
19149;SDS011;9707;49.158;8.632;2023-05-10T03:48:44;1.63;;;1.30;;
19149;SDS011;9707;49.158;8.632;2023-05-10T03:51:10;1.85;;;1.40;;
19149;SDS011;9707;49.158;8.632;2023-05-10T03:53:35;2.50;;;1.73;;
19149;SDS011;9707;49.158;8.632;2023-05-10T03:56:00;4.13;;;1.73;;
19149;SDS011;9707;49.158;8.632;2023-05-10T03:58:25;2.20;;;1.60;;
19149;SDS011;9707;49.158;8.632;2023-05-10T04:00:51;2.25;;;1.77;;
19149;SDS011;9707;49.158;8.632;2023-05-10T04:03:17;2.15;;;1.52;;
19149;SDS011;9707;49.158;8.632;2023-05-10T04:05:42;2.45;;;1.50;;
19149;SDS011;9707;49.158;8.632;2023-05-10T04:08:07;3.70;;;1.60;;
19149;SDS011;9707;49.158;8.632;2023-05-10T04:10:33;1.85;;;1.45;;
19149;SDS011;9707;49.158;8.632;2023-05-10T04:12:58;3.80;;;2.03;;
19149;SDS011;9707;49.158;8.632;2023-05-10T04:15:23;1.48;;;1.35;;
19149;SDS011;9707;49.158;8.632;2023-05-10T04:17:48;2.50;;;1.40;;
19149;SDS011;9707;49.158;8.632;2023-05-10T04:20:15;1.58;;;1.35;;
19149;SDS011;9707;49.158;8.632;2023-05-10T04:22:41;3.08;;;1.58;;
19149;SDS011;9707;49.158;8.632;2023-05-10T04:25:06;2.85;;;1.50;;
19149;SDS011;9707;49.158;8.632;2023-05-10T04:27:32;3.53;;;1.70;;
19149;SDS011;9707;49.158;8.632;2023-05-10T04:29:57;3.10;;;1.30;;
19149;SDS011;9707;49.158;8.632;2023-05-10T04:32:23;3.05;;;1.58;;
19149;SDS011;9707;49.158;8.632;2023-05-10T04:34:48;2.30;;;1.15;;
19149;SDS011;9707;49.158;8.632;2023-05-10T04:37:13;1.60;;;1.50;;
19149;SDS011;9707;49.158;8.632;2023-05-10T04:39:39;3.45;;;1.70;;
19149;SDS011;9707;49.158;8.632;2023-05-10T04:42:04;1.55;;;1.45;;
19149;SDS011;9707;49.158;8.632;2023-05-10T04:44:30;5.30;;;1.80;;
19149;SDS011;9707;49.158;8.632;2023-05-10T04:46:56;1.60;;;1.50;;
19149;SDS011;9707;49.158;8.632;2023-05-10T04:49:21;2.20;;;1.50;;
19149;SDS011;9707;49.158;8.632;2023-05-10T04:51:46;1.65;;;1.55;;
19149;SDS011;9707;49.158;8.632;2023-05-10T04:54:12;2.17;;;1.70;;
19149;SDS011;9707;49.158;8.632;2023-05-10T04:56:37;3.20;;;2.00;;
19149;SDS011;9707;49.158;8.632;2023-05-10T04:59:02;2.55;;;1.52;;
19149;SDS011;9707;49.158;8.632;2023-05-10T05:01:28;1.15;;;1.02;;
19149;SDS011;9707;49.158;8.632;2023-05-10T05:03:53;1.73;;;1.60;;
19149;SDS011;9707;49.158;8.632;2023-05-10T05:06:18;4.75;;;2.67;;
19149;SDS011;9707;49.158;8.632;2023-05-10T05:08:45;2.90;;;1.63;;
19149;SDS011;9707;49.158;8.632;2023-05-10T05:11:11;1.70;;;1.40;;
19149;SDS011;9707;49.158;8.632;2023-05-10T05:13:36;2.17;;;1.58;;
19149;SDS011;9707;49.158;8.632;2023-05-10T05:16:01;2.78;;;1.60;;
19149;SDS011;9707;49.158;8.632;2023-05-10T05:18:27;3.75;;;1.80;;
19149;SDS011;9707;49.158;8.632;2023-05-10T05:20:52;2.15;;;1.80;;
19149;SDS011;9707;49.158;8.632;2023-05-10T05:23:18;1.73;;;1.60;;
19149;SDS011;9707;49.158;8.632;2023-05-10T05:25:45;1.60;;;1.50;;
19149;SDS011;9707;49.158;8.632;2023-05-10T05:28:10;1.98;;;1.70;;
19149;SDS011;9707;49.158;8.632;2023-05-10T05:30:36;4.05;;;1.90;;
19149;SDS011;9707;49.158;8.632;2023-05-10T05:33:01;2.17;;;1.48;;
19149;SDS011;9707;49.158;8.632;2023-05-10T05:35:26;1.60;;;1.30;;
19149;SDS011;9707;49.158;8.632;2023-05-10T05:37:52;2.42;;;1.90;;
19149;SDS011;9707;49.158;8.632;2023-05-10T05:40:17;1.95;;;1.02;;
19149;SDS011;9707;49.158;8.632;2023-05-10T05:42:42;3.17;;;1.40;;
19149;SDS011;9707;49.158;8.632;2023-05-10T05:45:08;1.73;;;1.10;;
19149;SDS011;9707;49.158;8.632;2023-05-10T05:47:34;2.03;;;1.50;;
19149;SDS011;9707;49.158;8.632;2023-05-10T05:49:59;2.15;;;1.40;;
19149;SDS011;9707;49.158;8.632;2023-05-10T05:52:24;4.22;;;1.77;;
19149;SDS011;9707;49.158;8.632;2023-05-10T05:54:49;4.22;;;2.05;;
19149;SDS011;9707;49.158;8.632;2023-05-10T05:57:15;1.80;;;1.52;;
19149;SDS011;9707;49.158;8.632;2023-05-10T05:59:40;3.55;;;1.80;;
19149;SDS011;9707;49.158;8.632;2023-05-10T06:02:08;1.58;;;1.48;;
19149;SDS011;9707;49.158;8.632;2023-05-10T06:04:34;2.28;;;1.52;;
19149;SDS011;9707;49.158;8.632;2023-05-10T06:06:59;2.08;;;1.88;;
19149;SDS011;9707;49.158;8.632;2023-05-10T06:09:25;3.85;;;1.80;;
19149;SDS011;9707;49.158;8.632;2023-05-10T06:11:50;2.97;;;1.90;;
19149;SDS011;9707;49.158;8.632;2023-05-10T06:14:15;2.10;;;1.90;;
19149;SDS011;9707;49.158;8.632;2023-05-10T06:16:40;4.50;;;2.05;;
19149;SDS011;9707;49.158;8.632;2023-05-10T06:19:06;2.55;;;1.85;;
19149;SDS011;9707;49.158;8.632;2023-05-10T06:21:31;2.30;;;1.85;;
19149;SDS011;9707;49.158;8.632;2023-05-10T06:23:56;3.35;;;2.00;;
19149;SDS011;9707;49.158;8.632;2023-05-10T06:26:22;1.75;;;1.40;;
19149;SDS011;9707;49.158;8.632;2023-05-10T06:28:47;2.28;;;1.80;;
19149;SDS011;9707;49.158;8.632;2023-05-10T06:31:12;3.78;;;1.92;;
19149;SDS011;9707;49.158;8.632;2023-05-10T06:33:38;3.20;;;2.40;;
19149;SDS011;9707;49.158;8.632;2023-05-10T06:36:03;2.03;;;1.50;;
19149;SDS011;9707;49.158;8.632;2023-05-10T06:38:28;2.00;;;1.13;;
19149;SDS011;9707;49.158;8.632;2023-05-10T06:40:54;1.85;;;1.60;;
19149;SDS011;9707;49.158;8.632;2023-05-10T06:43:20;2.03;;;1.60;;
19149;SDS011;9707;49.158;8.632;2023-05-10T06:45:45;2.00;;;0.98;;
19149;SDS011;9707;49.158;8.632;2023-05-10T06:48:11;1.77;;;1.30;;
19149;SDS011;9707;49.158;8.632;2023-05-10T06:50:36;3.00;;;1.42;;
19149;SDS011;9707;49.158;8.632;2023-05-10T06:53:01;2.03;;;1.17;;
19149;SDS011;9707;49.158;8.632;2023-05-10T06:55:26;3.53;;;1.20;;
19149;SDS011;9707;49.158;8.632;2023-05-10T06:57:52;2.15;;;1.23;;
19149;SDS011;9707;49.158;8.632;2023-05-10T07:00:18;3.60;;;1.50;;
19149;SDS011;9707;49.158;8.632;2023-05-10T07:02:43;1.05;;;0.90;;
19149;SDS011;9707;49.158;8.632;2023-05-10T07:05:09;1.05;;;0.95;;
19149;SDS011;9707;49.158;8.632;2023-05-10T07:07:34;3.20;;;1.30;;
19149;SDS011;9707;49.158;8.632;2023-05-10T07:10:00;1.30;;;1.20;;
19149;SDS011;9707;49.158;8.632;2023-05-10T07:12:25;0.88;;;0.70;;
19149;SDS011;9707;49.158;8.632;2023-05-10T07:14:51;1.50;;;1.10;;
19149;SDS011;9707;49.158;8.632;2023-05-10T07:17:16;1.45;;;1.00;;
19149;SDS011;9707;49.158;8.632;2023-05-10T07:19:41;2.25;;;0.90;;
19149;SDS011;9707;49.158;8.632;2023-05-10T07:22:07;2.03;;;1.08;;
19149;SDS011;9707;49.158;8.632;2023-05-10T07:24:32;1.70;;;0.95;;
19149;SDS011;9707;49.158;8.632;2023-05-10T07:26:58;0.93;;;0.70;;
19149;SDS011;9707;49.158;8.632;2023-05-10T07:29:23;1.02;;;0.90;;
19149;SDS011;9707;49.158;8.632;2023-05-10T07:31:49;2.85;;;0.95;;
19149;SDS011;9707;49.158;8.632;2023-05-10T07:34:14;0.65;;;0.45;;
19149;SDS011;9707;49.158;8.632;2023-05-10T07:36:39;1.23;;;0.80;;
19149;SDS011;9707;49.158;8.632;2023-05-10T07:39:04;1.20;;;0.85;;
19149;SDS011;9707;49.158;8.632;2023-05-10T07:41:30;2.15;;;0.68;;
19149;SDS011;9707;49.158;8.632;2023-05-10T07:43:55;0.60;;;0.40;;
19149;SDS011;9707;49.158;8.632;2023-05-10T07:46:20;0.88;;;0.57;;
19149;SDS011;9707;49.158;8.632;2023-05-10T07:48:46;1.50;;;0.63;;
19149;SDS011;9707;49.158;8.632;2023-05-10T07:51:11;0.70;;;0.57;;
19149;SDS011;9707;49.158;8.632;2023-05-10T07:53:37;1.08;;;0.40;;
19149;SDS011;9707;49.158;8.632;2023-05-10T07:56:22;2.13;;;0.65;;
19149;SDS011;9707;49.158;8.632;2023-05-10T07:58:50;2.42;;;0.60;;
19149;SDS011;9707;49.158;8.632;2023-05-10T08:01:16;0.88;;;0.40;;
19149;SDS011;9707;49.158;8.632;2023-05-10T08:03:41;0.90;;;0.52;;
19149;SDS011;9707;49.158;8.632;2023-05-10T08:06:06;0.63;;;0.40;;
19149;SDS011;9707;49.158;8.632;2023-05-10T08:08:31;1.52;;;0.50;;
19149;SDS011;9707;49.158;8.632;2023-05-10T08:10:57;1.58;;;0.40;;
19149;SDS011;9707;49.158;8.632;2023-05-10T08:13:22;1.25;;;0.57;;
19149;SDS011;9707;49.158;8.632;2023-05-10T08:15:47;1.58;;;0.50;;
19149;SDS011;9707;49.158;8.632;2023-05-10T08:18:13;0.60;;;0.50;;
19149;SDS011;9707;49.158;8.632;2023-05-10T08:20:38;0.95;;;0.50;;
19149;SDS011;9707;49.158;8.632;2023-05-10T08:23:03;1.42;;;0.60;;
19149;SDS011;9707;49.158;8.632;2023-05-10T08:25:29;0.65;;;0.55;;
19149;SDS011;9707;49.158;8.632;2023-05-10T08:27:54;2.45;;;0.70;;
19149;SDS011;9707;49.158;8.632;2023-05-10T08:30:19;1.75;;;0.60;;
19149;SDS011;9707;49.158;8.632;2023-05-10T08:32:44;1.98;;;0.57;;
19149;SDS011;9707;49.158;8.632;2023-05-10T08:35:10;1.13;;;0.50;;
19149;SDS011;9707;49.158;8.632;2023-05-10T08:37:35;0.68;;;0.50;;
19149;SDS011;9707;49.158;8.632;2023-05-10T08:40:00;4.82;;;1.08;;
19149;SDS011;9707;49.158;8.632;2023-05-10T08:42:26;2.40;;;0.60;;
19149;SDS011;9707;49.158;8.632;2023-05-10T08:44:55;1.05;;;0.60;;
19149;SDS011;9707;49.158;8.632;2023-05-10T08:47:22;2.88;;;0.65;;
19149;SDS011;9707;49.158;8.632;2023-05-10T08:49:47;2.42;;;0.80;;
19149;SDS011;9707;49.158;8.632;2023-05-10T08:52:16;0.75;;;0.60;;
19149;SDS011;9707;49.158;8.632;2023-05-10T08:54:42;1.10;;;0.73;;
19149;SDS011;9707;49.158;8.632;2023-05-10T08:57:08;0.50;;;0.47;;
19149;SDS011;9707;49.158;8.632;2023-05-10T08:59:34;0.35;;;0.35;;
19149;SDS011;9707;49.158;8.632;2023-05-10T09:01:59;4.35;;;0.60;;
19149;SDS011;9707;49.158;8.632;2023-05-10T09:04:26;1.75;;;0.60;;
19149;SDS011;9707;49.158;8.632;2023-05-10T09:06:53;0.98;;;0.47;;
19149;SDS011;9707;49.158;8.632;2023-05-10T09:09:18;1.55;;;0.57;;
19149;SDS011;9707;49.158;8.632;2023-05-10T09:11:45;1.10;;;0.57;;
19149;SDS011;9707;49.158;8.632;2023-05-10T09:14:11;0.98;;;0.60;;
19149;SDS011;9707;49.158;8.632;2023-05-10T09:16:37;0.75;;;0.50;;
19149;SDS011;9707;49.158;8.632;2023-05-10T09:19:03;0.60;;;0.50;;
19149;SDS011;9707;49.158;8.632;2023-05-10T09:21:28;0.77;;;0.50;;
19149;SDS011;9707;49.158;8.632;2023-05-10T09:23:55;1.55;;;0.50;;
19149;SDS011;9707;49.158;8.632;2023-05-10T09:26:23;1.75;;;0.50;;
19149;SDS011;9707;49.158;8.632;2023-05-10T09:28:50;0.47;;;0.35;;
19149;SDS011;9707;49.158;8.632;2023-05-10T09:31:20;0.88;;;0.45;;
19149;SDS011;9707;49.158;8.632;2023-05-10T09:33:46;0.77;;;0.50;;
19149;SDS011;9707;49.158;8.632;2023-05-10T09:36:13;1.67;;;0.50;;
19149;SDS011;9707;49.158;8.632;2023-05-10T09:38:49;0.50;;;0.50;;
19149;SDS011;9707;49.158;8.632;2023-05-10T09:41:17;1.42;;;0.47;;
19149;SDS011;9707;49.158;8.632;2023-05-10T09:43:46;1.20;;;0.35;;
19149;SDS011;9707;49.158;8.632;2023-05-10T09:46:11;2.67;;;0.63;;
19149;SDS011;9707;49.158;8.632;2023-05-10T09:48:44;1.02;;;0.80;;
19149;SDS011;9707;49.158;8.632;2023-05-10T09:51:15;1.90;;;0.50;;
19149;SDS011;9707;49.158;8.632;2023-05-10T09:53:43;0.60;;;0.40;;
19149;SDS011;9707;49.158;8.632;2023-05-10T09:56:09;0.75;;;0.40;;
19149;SDS011;9707;49.158;8.632;2023-05-10T09:58:36;0.60;;;0.45;;
19149;SDS011;9707;49.158;8.632;2023-05-10T10:01:03;0.40;;;0.40;;
19149;SDS011;9707;49.158;8.632;2023-05-10T10:03:28;0.68;;;0.47;;
19149;SDS011;9707;49.158;8.632;2023-05-10T10:05:54;2.13;;;0.65;;
19149;SDS011;9707;49.158;8.632;2023-05-10T10:08:21;0.60;;;0.40;;
19149;SDS011;9707;49.158;8.632;2023-05-10T10:10:46;1.23;;;0.50;;
19149;SDS011;9707;49.158;8.632;2023-05-10T10:13:12;1.85;;;0.80;;
19149;SDS011;9707;49.158;8.632;2023-05-10T10:15:38;1.50;;;0.40;;
19149;SDS011;9707;49.158;8.632;2023-05-10T10:18:03;2.45;;;0.60;;
19149;SDS011;9707;49.158;8.632;2023-05-10T10:20:30;1.25;;;0.60;;
19149;SDS011;9707;49.158;8.632;2023-05-10T10:22:56;0.73;;;0.40;;
19149;SDS011;9707;49.158;8.632;2023-05-10T10:25:21;1.73;;;0.40;;
19149;SDS011;9707;49.158;8.632;2023-05-10T10:27:49;0.50;;;0.50;;
19149;SDS011;9707;49.158;8.632;2023-05-10T10:33:24;1.85;;;0.80;;
19149;SDS011;9707;49.158;8.632;2023-05-10T10:35:59;2.63;;;0.65;;
19149;SDS011;9707;49.158;8.632;2023-05-10T10:38:35;2.58;;;0.52;;
19149;SDS011;9707;49.158;8.632;2023-05-10T10:41:06;1.73;;;0.60;;
19149;SDS011;9707;49.158;8.632;2023-05-10T10:43:34;2.10;;;0.55;;
19149;SDS011;9707;49.158;8.632;2023-05-10T10:48:38;1.10;;;0.50;;
19149;SDS011;9707;49.158;8.632;2023-05-10T10:51:04;0.50;;;0.40;;
19149;SDS011;9707;49.158;8.632;2023-05-10T10:53:30;1.67;;;1.58;;
19149;SDS011;9707;49.158;8.632;2023-05-10T10:56:02;2.35;;;0.68;;
19149;SDS011;9707;49.158;8.632;2023-05-10T10:58:31;0.68;;;0.60;;
19149;SDS011;9707;49.158;8.632;2023-05-10T11:01:13;1.00;;;0.50;;
19149;SDS011;9707;49.158;8.632;2023-05-10T11:03:40;0.90;;;0.50;;
19149;SDS011;9707;49.158;8.632;2023-05-10T11:06:28;2.78;;;0.80;;
19149;SDS011;9707;49.158;8.632;2023-05-10T11:08:57;2.38;;;0.80;;
19149;SDS011;9707;49.158;8.632;2023-05-10T11:11:22;1.05;;;0.70;;
19149;SDS011;9707;49.158;8.632;2023-05-10T11:13:48;2.33;;;0.70;;
19149;SDS011;9707;49.158;8.632;2023-05-10T11:16:17;1.98;;;0.95;;
19149;SDS011;9707;49.158;8.632;2023-05-10T11:21:26;2.00;;;0.80;;
19149;SDS011;9707;49.158;8.632;2023-05-10T11:23:52;3.15;;;0.82;;
19149;SDS011;9707;49.158;8.632;2023-05-10T11:26:22;2.22;;;0.70;;
19149;SDS011;9707;49.158;8.632;2023-05-10T11:28:51;1.05;;;0.60;;
19149;SDS011;9707;49.158;8.632;2023-05-10T11:31:19;3.85;;;1.02;;
19149;SDS011;9707;49.158;8.632;2023-05-10T11:33:45;3.00;;;1.08;;
19149;SDS011;9707;49.158;8.632;2023-05-10T11:36:13;3.63;;;1.10;;
19149;SDS011;9707;49.158;8.632;2023-05-10T11:38:40;2.95;;;0.98;;
19149;SDS011;9707;49.158;8.632;2023-05-10T11:41:05;1.35;;;0.60;;
19149;SDS011;9707;49.158;8.632;2023-05-10T11:43:30;1.70;;;0.60;;
19149;SDS011;9707;49.158;8.632;2023-05-10T11:45:56;1.90;;;0.70;;
19149;SDS011;9707;49.158;8.632;2023-05-10T11:48:21;2.60;;;0.73;;
19149;SDS011;9707;49.158;8.632;2023-05-10T11:50:48;1.88;;;0.95;;
19149;SDS011;9707;49.158;8.632;2023-05-10T11:53:14;3.90;;;1.40;;
19149;SDS011;9707;49.158;8.632;2023-05-10T11:55:40;0.80;;;0.60;;
19149;SDS011;9707;49.158;8.632;2023-05-10T11:58:05;4.10;;;0.73;;
19149;SDS011;9707;49.158;8.632;2023-05-10T12:00:30;3.25;;;0.90;;
19149;SDS011;9707;49.158;8.632;2023-05-10T12:02:56;3.45;;;1.05;;
19149;SDS011;9707;49.158;8.632;2023-05-10T12:05:22;1.85;;;1.05;;
19149;SDS011;9707;49.158;8.632;2023-05-10T12:07:47;4.07;;;1.10;;
19149;SDS011;9707;49.158;8.632;2023-05-10T12:10:13;4.63;;;1.00;;
19149;SDS011;9707;49.158;8.632;2023-05-10T12:12:45;1.63;;;0.60;;
19149;SDS011;9707;49.158;8.632;2023-05-10T12:15:18;2.67;;;1.10;;
19149;SDS011;9707;49.158;8.632;2023-05-10T12:17:45;3.00;;;0.63;;
19149;SDS011;9707;49.158;8.632;2023-05-10T12:20:17;2.53;;;0.95;;
19149;SDS011;9707;49.158;8.632;2023-05-10T12:22:49;1.58;;;0.93;;
19149;SDS011;9707;49.158;8.632;2023-05-10T12:25:16;0.90;;;0.68;;
19149;SDS011;9707;49.158;8.632;2023-05-10T12:27:49;1.48;;;0.73;;
19149;SDS011;9707;49.158;8.632;2023-05-10T12:30:19;2.17;;;0.88;;
19149;SDS011;9707;49.158;8.632;2023-05-10T12:32:45;1.35;;;0.95;;
19149;SDS011;9707;49.158;8.632;2023-05-10T12:35:11;3.15;;;0.82;;
19149;SDS011;9707;49.158;8.632;2023-05-10T12:37:36;1.67;;;0.90;;
19149;SDS011;9707;49.158;8.632;2023-05-10T12:40:07;3.55;;;1.00;;
19149;SDS011;9707;49.158;8.632;2023-05-10T12:42:34;2.28;;;1.00;;
19149;SDS011;9707;49.158;8.632;2023-05-10T12:45:00;6.55;;;1.30;;
19149;SDS011;9707;49.158;8.632;2023-05-10T12:47:26;1.23;;;0.85;;
19149;SDS011;9707;49.158;8.632;2023-05-10T12:49:51;1.85;;;0.75;;
19149;SDS011;9707;49.158;8.632;2023-05-10T12:52:16;2.47;;;0.93;;
19149;SDS011;9707;49.158;8.632;2023-05-10T12:54:42;1.48;;;0.50;;
19149;SDS011;9707;49.158;8.632;2023-05-10T12:57:07;2.03;;;1.00;;
19149;SDS011;9707;49.158;8.632;2023-05-10T12:59:32;3.10;;;0.80;;
19149;SDS011;9707;49.158;8.632;2023-05-10T13:01:57;1.95;;;0.80;;
19149;SDS011;9707;49.158;8.632;2023-05-10T13:04:23;1.58;;;0.65;;
19149;SDS011;9707;49.158;8.632;2023-05-10T13:06:48;0.93;;;0.50;;
19149;SDS011;9707;49.158;8.632;2023-05-10T13:09:13;1.15;;;0.70;;
19149;SDS011;9707;49.158;8.632;2023-05-10T13:11:39;2.55;;;0.75;;
19149;SDS011;9707;49.158;8.632;2023-05-10T13:14:04;5.72;;;1.08;;
19149;SDS011;9707;49.158;8.632;2023-05-10T13:16:29;1.05;;;0.60;;
19149;SDS011;9707;49.158;8.632;2023-05-10T13:18:55;1.92;;;0.80;;
19149;SDS011;9707;49.158;8.632;2023-05-10T13:21:20;1.05;;;0.70;;
19149;SDS011;9707;49.158;8.632;2023-05-10T13:23:45;1.00;;;0.80;;
19149;SDS011;9707;49.158;8.632;2023-05-10T13:26:11;2.20;;;0.68;;
19149;SDS011;9707;49.158;8.632;2023-05-10T13:28:37;1.02;;;0.70;;
19149;SDS011;9707;49.158;8.632;2023-05-10T13:31:03;0.73;;;0.68;;
19149;SDS011;9707;49.158;8.632;2023-05-10T13:33:29;1.33;;;0.80;;
19149;SDS011;9707;49.158;8.632;2023-05-10T13:35:55;1.65;;;0.80;;
19149;SDS011;9707;49.158;8.632;2023-05-10T13:38:20;1.52;;;0.77;;
19149;SDS011;9707;49.158;8.632;2023-05-10T13:40:45;1.48;;;0.65;;
19149;SDS011;9707;49.158;8.632;2023-05-10T13:43:11;2.83;;;0.80;;
19149;SDS011;9707;49.158;8.632;2023-05-10T13:45:36;2.45;;;0.80;;
19149;SDS011;9707;49.158;8.632;2023-05-10T13:48:01;0.90;;;0.52;;
19149;SDS011;9707;49.158;8.632;2023-05-10T13:50:27;3.45;;;0.77;;
19149;SDS011;9707;49.158;8.632;2023-05-10T13:52:52;3.33;;;0.93;;
19149;SDS011;9707;49.158;8.632;2023-05-10T13:55:17;3.30;;;0.82;;
19149;SDS011;9707;49.158;8.632;2023-05-10T13:57:43;2.10;;;0.60;;
19149;SDS011;9707;49.158;8.632;2023-05-10T14:00:08;1.92;;;0.70;;
19149;SDS011;9707;49.158;8.632;2023-05-10T14:02:34;2.08;;;0.60;;
19149;SDS011;9707;49.158;8.632;2023-05-10T14:04:59;3.45;;;0.70;;
19149;SDS011;9707;49.158;8.632;2023-05-10T14:07:25;1.63;;;0.50;;
19149;SDS011;9707;49.158;8.632;2023-05-10T14:09:50;1.77;;;0.70;;
19149;SDS011;9707;49.158;8.632;2023-05-10T14:12:16;2.40;;;0.60;;
19149;SDS011;9707;49.158;8.632;2023-05-10T14:14:41;0.40;;;0.40;;
19149;SDS011;9707;49.158;8.632;2023-05-10T14:17:06;1.00;;;0.40;;
19149;SDS011;9707;49.158;8.632;2023-05-10T14:19:32;0.65;;;0.40;;
19149;SDS011;9707;49.158;8.632;2023-05-10T14:21:58;2.50;;;1.02;;
19149;SDS011;9707;49.158;8.632;2023-05-10T14:24:24;2.08;;;0.47;;
19149;SDS011;9707;49.158;8.632;2023-05-10T14:26:49;0.63;;;0.38;;
19149;SDS011;9707;49.158;8.632;2023-05-10T14:29:18;1.50;;;0.50;;
19149;SDS011;9707;49.158;8.632;2023-05-10T14:31:43;2.03;;;0.40;;
19149;SDS011;9707;49.158;8.632;2023-05-10T14:34:09;3.40;;;0.60;;
19149;SDS011;9707;49.158;8.632;2023-05-10T14:36:34;1.08;;;0.70;;
19149;SDS011;9707;49.158;8.632;2023-05-10T14:38:59;2.33;;;0.45;;
19149;SDS011;9707;49.158;8.632;2023-05-10T14:41:25;0.95;;;0.47;;
19149;SDS011;9707;49.158;8.632;2023-05-10T14:43:50;0.68;;;0.40;;
19149;SDS011;9707;49.158;8.632;2023-05-10T14:46:15;1.05;;;0.32;;
19149;SDS011;9707;49.158;8.632;2023-05-10T14:48:40;0.85;;;0.30;;
19149;SDS011;9707;49.158;8.632;2023-05-10T14:51:06;1.55;;;0.50;;
19149;SDS011;9707;49.158;8.632;2023-05-10T14:53:31;0.45;;;0.32;;
19149;SDS011;9707;49.158;8.632;2023-05-10T14:55:57;0.30;;;0.20;;
19149;SDS011;9707;49.158;8.632;2023-05-10T14:58:23;0.93;;;0.40;;
19149;SDS011;9707;49.158;8.632;2023-05-10T15:00:48;0.57;;;0.30;;
19149;SDS011;9707;49.158;8.632;2023-05-10T15:03:13;1.90;;;1.13;;
19149;SDS011;9707;49.158;8.632;2023-05-10T15:05:39;1.48;;;0.35;;
19149;SDS011;9707;49.158;8.632;2023-05-10T15:08:04;1.42;;;0.30;;
19149;SDS011;9707;49.158;8.632;2023-05-10T15:10:30;1.83;;;0.20;;
19149;SDS011;9707;49.158;8.632;2023-05-10T15:12:57;0.40;;;0.30;;
19149;SDS011;9707;49.158;8.632;2023-05-10T15:15:22;0.65;;;0.38;;
19149;SDS011;9707;49.158;8.632;2023-05-10T15:17:47;1.70;;;0.40;;
19149;SDS011;9707;49.158;8.632;2023-05-10T15:20:13;2.05;;;0.60;;
19149;SDS011;9707;49.158;8.632;2023-05-10T15:22:38;1.33;;;0.30;;
19149;SDS011;9707;49.158;8.632;2023-05-10T15:25:03;0.43;;;0.30;;
19149;SDS011;9707;49.158;8.632;2023-05-10T15:27:29;0.55;;;0.32;;